LOS ANGELES INTL

KLAX (LAX)
Los Angeles, California
Towered

Vatsim Metar:
KLAX 271653Z 04003KT 10SM FEW250 16/M04 A3019 RMK AO2 SLP223 T01561039

No ATC Online

Traffic

Inbound:
Ident
Type
Name
ETA
Phase
ASA502
B739
Eric Schreiber KSLC
18:18 Z
Cruse
ASA215
B738
842985
Boarding
UAE18
B77W
Sebastiaan Marynissen EBBR
Boarding
CLX37B
B748
Paulo Monteiro LFML
18:44 Z
Cruse
SOA375
A320
Nick Szopko KDTW
20:19 Z
Climb
UAL632
B739
Sergio Diaz SKBO
20:49 Z
Cruse
DAL1015
A320
pablo scarimbolo KRDU
21:05 Z
Cruse
AAL1676
A319
Frank Johnson PHOG
21:49 Z
Cruse
BAW269
B77W
Bryan Juarez KRNO
02:52 Z
Cruse
AFR076
B77L
OMAR ZAYDI CMN
08:49 Z
Climb

Outbound:
Ident
Type
Name
Destination
Phase
SAS932
A346
Jacob Stubbington CYKF
EKCH
Taxiing Out
AAL739
A320
Troy Autry III KLBO
KLAS
Boarding
SWA1345
B738
Ryann Casagrande Ribeiro SBFI
KSFO
Boarding
DAL1275
A333
Travis Miller KSAN
RJTT
Climb
CEB145
A339
Carlo Deguzman RPUF
RPLL
Climb